Time;durP1;ratioP1;P1;durP2;ratioP2;P2;SDS_P1;SDS_P2;PMS_P1;PMS_P2;Temp;Humidity;BMP_temperature;BMP_pressure;BME280_temperature;BME280_humidity;BME280_pressure;Samples;Min_cycle;Max_cycle;Signal;HPM_P1;HPM_P2
2023/05/02 00:00:30;;;;;;;;;;;;;;;19.25;45.75;101459.66;103559;1286;62462;-83
2023/05/02 00:03:07;;;;;;;;;;;;;;;19.25;45.79;101464.81;103551;1291;62411;-82
2023/05/02 00:05:34;;;;;;;;;;;;;;;19.26;45.92;101465.33;103500;1290;73640;-83
2023/05/02 00:08:00;;;;;;;;;;;;;;;19.25;45.84;101467.69;103572;1286;75518;-83
2023/05/02 00:10:28;;;;;;;;;;;;;;;19.25;45.74;101470.01;103582;1289;61300;-83
2023/05/02 00:13:02;;;;;;;;;;;;;;;19.25;45.93;101474.80;103558;1286;61375;-82
2023/05/02 00:15:28;;;;;;;;;;;;;;;19.25;45.88;101475.20;103565;1285;72413;-83
2023/05/02 00:17:59;;;;;;;;;;;;;;;19.25;45.82;101476.45;103594;1285;61313;-83
2023/05/02 00:20:36;;;;;;;;;;;;;;;19.25;45.91;101476.44;103701;1285;61888;-84
2023/05/02 00:23:05;;;;;;;;;;;;;;;19.25;45.92;101481.62;103600;1286;61383;-83
2023/05/02 00:25:30;;;;;;;;;;;;;;;19.25;46.00;101481.45;103503;1286;73607;-84
2023/05/02 00:28:02;;;;;;;;;;;;;;;19.25;45.81;101480.56;103566;1291;61327;-83
2023/05/02 00:30:28;;;;;;;;;;;;;;;19.25;45.96;101479.48;103611;1285;61301;-83
2023/05/02 00:32:54;;;;;;;;;;;;;;;19.25;45.86;101482.70;103553;1286;62397;-82
2023/05/02 00:35:27;;;;;;;;;;;;;;;19.24;46.00;101484.49;103551;1286;73530;-82
2023/05/02 00:37:56;;;;;;;;;;;;;;;19.24;46.02;101484.50;103511;1291;74473;-83
2023/05/02 00:40:22;;;;;;;;;;;;;;;19.24;45.95;101483.45;103561;1291;61485;-82
2023/05/02 00:42:50;;;;;;;;;;;;;;;19.25;45.86;101485.39;103588;1285;61736;-83
2023/05/02 00:45:17;;;;;;;;;;;;;;;19.25;45.97;101483.96;103523;1290;73362;-83
2023/05/02 00:47:43;;;;;;;;;;;;;;;19.24;45.79;101485.92;103570;1285;74880;-83
2023/05/02 00:50:14;;;;;;;;;;;;;;;19.23;46.03;101484.19;103534;1286;61246;-83
2023/05/02 00:52:42;;;;;;;;;;;;;;;19.24;45.89;101488.11;103560;1285;61285;-82
2023/05/02 00:55:10;;;;;;;;;;;;;;;19.24;46.06;101485.61;103570;1289;72208;-84
2023/05/02 00:57:37;;;;;;;;;;;;;;;19.23;45.88;101486.91;103567;1291;61377;-82
2023/05/02 01:00:15;;;;;;;;;;;;;;;19.23;45.97;101487.64;103600;1285;62395;-83
2023/05/02 01:02:47;;;;;;;;;;;;;;;19.23;45.89;101488.33;103533;1285;61343;-82
2023/05/02 01:05:15;;;;;;;;;;;;;;;19.23;45.92;101489.05;103524;1289;73476;-83
2023/05/02 01:07:47;;;;;;;;;;;;;;;19.23;45.92;101484.25;103545;1288;75638;-83
2023/05/02 01:10:45;;;;;;;;;;;;;;;19.22;45.86;101489.07;103614;1289;61415;-82
2023/05/02 01:13:20;;;;;;;;;;;;;;;19.23;45.84;101489.60;102985;1293;61338;-83
2023/05/02 01:15:57;;;;;;;;;;;;;;;19.22;46.04;101485.50;102989;1295;72861;-82
2023/05/02 01:18:23;;;;;;;;;;;;;;;19.22;45.99;101487.48;102888;1297;74477;-83
2023/05/02 01:20:57;;;;;;;;;;;;;;;19.22;46.06;101491.93;102911;1293;61865;-83
2023/05/02 01:23:31;;;;;;;;;;;;;;;19.23;45.89;101487.46;102979;1296;61561;-83
2023/05/02 01:26:08;;;;;;;;;;;;;;;19.22;45.93;101482.12;103012;1296;72597;-83
2023/05/02 01:29:07;;;;;;;;;;;;;;;19.22;46.01;101484.27;102898;1297;74529;-82
2023/05/02 01:31:36;;;;;;;;;;;;;;;19.22;45.82;101483.36;102363;1300;61534;-82
2023/05/02 01:34:02;;;;;;;;;;;;;;;19.22;46.06;101486.25;102479;1300;61339;-83
2023/05/02 01:36:30;;;;;;;;;;;;;;;19.22;45.80;101489.64;102478;1305;61372;-82
2023/05/02 01:39:04;;;;;;;;;;;;;;;19.22;45.97;101490.88;102481;1302;74448;-83
2023/05/02 01:41:30;;;;;;;;;;;;;;;19.22;46.06;101490.19;102467;1301;61530;-83
2023/05/02 01:43:57;;;;;;;;;;;;;;;19.22;45.82;101493.56;102548;1300;61444;-82
2023/05/02 01:46:24;;;;;;;;;;;;;;;19.22;45.96;101494.64;102517;1305;61369;-84
2023/05/02 01:48:50;;;;;;;;;;;;;;;19.22;45.90;101494.10;102619;1294;61479;-83
2023/05/02 01:51:17;;;;;;;;;;;;;;;19.22;45.87;101494.30;102591;1300;61434;-83
2023/05/02 01:53:46;;;;;;;;;;;;;;;19.22;45.99;101494.30;102509;1302;61340;-83
2023/05/02 01:56:31;;;;;;;;;;;;;;;19.22;45.93;101497.48;102545;1302;72519;-83
2023/05/02 01:58:56;;;;;;;;;;;;;;;19.21;45.95;101495.73;102506;1299;75472;-83
2023/05/02 02:01:26;;;;;;;;;;;;;;;19.21;45.97;101495.39;102547;1300;61521;-82
2023/05/02 02:03:54;;;;;;;;;;;;;;;19.21;45.83;101503.05;102581;1300;61607;-83
2023/05/02 02:06:20;;;;;;;;;;;;;;;19.21;45.98;101500.20;102510;1300;61411;-85
2023/05/02 02:08:46;;;;;;;;;;;;;;;19.21;46.00;101496.81;103093;1292;61537;-84
2023/05/02 02:11:16;;;;;;;;;;;;;;;19.21;46.06;101495.92;103035;1294;61516;-83
2023/05/02 02:13:48;;;;;;;;;;;;;;;19.21;45.93;101498.80;103144;1293;61280;-82
2023/05/02 02:16:17;;;;;;;;;;;;;;;19.21;46.02;101496.30;103329;1291;73704;-82
2023/05/02 02:18:45;;;;;;;;;;;;;;;19.20;45.99;101496.33;103042;1289;74517;-82
2023/05/02 02:21:10;;;;;;;;;;;;;;;19.20;46.02;101499.36;103045;1294;62097;-83
2023/05/02 02:23:37;;;;;;;;;;;;;;;19.20;45.93;101497.21;103445;1286;61398;-82
2023/05/02 02:26:02;;;;;;;;;;;;;;;19.20;45.98;101496.70;103542;1286;61402;-83
2023/05/02 02:28:31;;;;;;;;;;;;;;;19.21;45.97;101500.59;103590;1286;62585;-83
2023/05/02 02:30:56;;;;;;;;;;;;;;;19.20;46.01;101497.95;103498;1286;61381;-82
2023/05/02 02:33:28;;;;;;;;;;;;;;;19.19;46.08;101498.68;103517;1286;61375;-83
2023/05/02 02:35:59;;;;;;;;;;;;;;;19.19;46.04;101498.86;103604;1289;72992;-83
2023/05/02 02:38:32;;;;;;;;;;;;;;;19.19;45.84;101499.42;103660;1285;75554;-83
2023/05/02 02:41:07;;;;;;;;;;;;;;;19.19;45.99;101499.75;103611;1285;61466;-82
2023/05/02 02:43:35;;;;;;;;;;;;;;;19.19;45.96;101503.70;103547;1285;61478;-85
2023/05/02 02:46:03;;;;;;;;;;;;;;;19.19;45.92;101504.23;103558;1286;73024;-83
2023/05/02 02:48:36;;;;;;;;;;;;;;;19.18;45.94;101503.20;103564;1291;74569;-82
2023/05/02 02:51:12;;;;;;;;;;;;;;;19.19;46.18;101506.05;103603;1286;61382;-82
2023/05/02 02:53:52;;;;;;;;;;;;;;;19.19;45.96;101507.14;103571;1286;61351;-82
2023/05/02 02:56:37;;;;;;;;;;;;;;;19.19;46.06;101513.00;103590;1285;72330;-83
2023/05/02 02:59:19;;;;;;;;;;;;;;;19.18;45.97;101514.45;103663;1287;75479;-83
2023/05/02 03:01:56;;;;;;;;;;;;;;;19.18;46.08;101518.20;103525;1286;61728;-83
2023/05/02 03:04:25;;;;;;;;;;;;;;;19.18;45.95;101515.18;103519;1286;62564;-83
2023/05/02 03:06:59;;;;;;;;;;;;;;;19.18;45.95;101518.41;103560;1290;61410;-84
2023/05/02 03:09:29;;;;;;;;;;;;;;;19.18;45.91;101518.04;103532;1291;74267;-83
2023/05/02 03:11:58;;;;;;;;;;;;;;;19.18;46.02;101523.56;103574;1285;62049;-82
2023/05/02 03:14:24;;;;;;;;;;;;;;;19.17;46.06;101523.79;103571;1286;61304;-82
2023/05/02 03:16:59;;;;;;;;;;;;;;;19.18;45.93;101528.58;103549;1290;73302;-83
2023/05/02 03:19:25;;;;;;;;;;;;;;;19.17;46.03;101531.80;103504;1286;75760;-84
2023/05/02 03:22:00;;;;;;;;;;;;;;;19.18;46.03;101534.65;103560;1286;61374;-82
2023/05/02 03:24:28;;;;;;;;;;;;;;;19.17;45.99;101533.95;103553;1286;62483;-83
2023/05/02 03:27:00;;;;;;;;;;;;;;;19.18;46.03;101535.73;103552;1285;72567;-84
2023/05/02 03:29:35;;;;;;;;;;;;;;;19.18;46.10;101544.64;103536;1289;73764;-84
2023/05/02 03:32:09;;;;;;;;;;;;;;;19.17;45.91;101542.55;103557;1290;61401;-84
2023/05/02 03:34:35;;;;;;;;;;;;;;;19.17;46.01;101544.15;103554;1286;62544;-84
2023/05/02 03:37:03;;;;;;;;;;;;;;;19.16;46.15;101539.93;103566;1285;61407;-85
2023/05/02 03:39:35;;;;;;;;;;;;;;;19.16;46.02;101545.09;103637;1286;73754;-84
2023/05/02 03:42:04;;;;;;;;;;;;;;;19.16;45.89;101543.30;103608;1286;61390;-84
2023/05/02 03:44:33;;;;;;;;;;;;;;;19.16;46.00;101550.29;103533;1286;61930;-84
2023/05/02 03:46:58;;;;;;;;;;;;;;;19.15;46.02;101550.84;103595;1285;72356;-84
2023/05/02 03:49:51;;;;;;;;;;;;;;;19.15;45.91;101555.14;103480;1286;73360;-85
2023/05/02 03:52:17;;;;;;;;;;;;;;;19.15;45.99;101563.36;103564;1286;61301;-85
2023/05/02 03:54:43;;;;;;;;;;;;;;;19.15;45.94;101562.09;103564;1285;61401;-85
2023/05/02 03:57:08;;;;;;;;;;;;;;;19.15;45.91;101564.06;103550;1288;61470;-85
2023/05/02 03:59:34;;;;;;;;;;;;;;;19.14;46.01;101562.85;103570;1286;61410;-85
2023/05/02 04:02:10;;;;;;;;;;;;;;;19.14;45.90;101563.39;103590;1285;61296;-84
2023/05/02 04:04:50;;;;;;;;;;;;;;;;;;;;;
2023/05/02 04:07:18;;;;;;;;;;;;;;;19.14;45.91;101570.73;103564;1285;73610;-83
2023/05/02 04:09:47;;;;;;;;;;;;;;;19.14;45.89;101571.98;103657;1285;74783;-83
2023/05/02 04:12:14;;;;;;;;;;;;;;;19.13;45.80;101577.52;103652;1285;61288;-84
2023/05/02 04:14:39;;;;;;;;;;;;;;;19.13;45.84;101573.23;103721;1285;61375;-83
2023/05/02 04:17:05;;;;;;;;;;;;;;;19.13;45.70;101576.63;103480;1291;61384;-83
2023/05/02 04:19:31;;;;;;;;;;;;;;;19.13;45.68;101577.35;103855;1286;61366;-83
2023/05/02 04:21:57;;;;;;;;;;;;;;;19.12;45.44;101577.04;103641;1285;62421;-83
2023/05/02 04:24:22;;;;;;;;;;;;;;;19.12;45.61;101582.76;103702;1286;61425;-83
2023/05/02 04:26:49;;;;;;;;;;;;;;;19.11;45.49;101581.36;103762;1285;61473;-83
2023/05/02 04:29:14;;;;;;;;;;;;;;;19.10;45.53;101584.80;104107;1285;73452;-82
2023/05/02 04:31:42;;;;;;;;;;;;;;;19.09;45.33;101584.86;104196;1285;74281;-83
2023/05/02 04:34:07;;;;;;;;;;;;;;;19.08;45.43;101585.25;104092;1286;62747;-83
2023/05/02 04:36:33;;;;;;;;;;;;;;;19.08;45.30;101587.05;103882;1285;62538;-82
2023/05/02 04:38:59;;;;;;;;;;;;;;;19.08;45.38;101591.88;104028;1286;61422;-83
2023/05/02 04:41:29;;;;;;;;;;;;;;;19.07;45.21;101591.20;104200;1284;61385;-83
2023/05/02 04:44:15;;;;;;;;;;;;;;;19.07;45.19;101593.16;104722;1285;61489;-83
2023/05/02 04:46:44;;;;;;;;;;;;;;;19.07;45.07;101587.99;104532;1285;61275;-83
2023/05/02 04:49:10;;;;;;;;;;;;;;;19.07;44.92;101591.05;105116;1285;72889;-83
2023/05/02 04:51:56;;;;;;;;;;;;;;;19.05;44.93;101585.45;104761;1286;73911;-82
2023/05/02 04:54:22;;;;;;;;;;;;;;;19.03;44.71;101587.66;105094;1284;61093;-83
2023/05/02 04:56:50;;;;;;;;;;;;;;;19.01;44.38;101589.02;105242;1285;61310;-83
2023/05/02 04:59:19;;;;;;;;;;;;;;;18.89;44.20;101586.74;105155;1286;61284;-82
2023/05/02 05:01:44;;;;;;;;;;;;;;;18.85;43.97;101590.99;105363;1286;75563;-82
2023/05/02 05:04:09;;;;;;;;;;;;;;;18.84;44.07;101592.33;105494;1286;60399;-82
2023/05/02 05:06:35;;;;;;;;;;;;;;;18.85;43.62;101593.53;105620;1286;59794;-82
2023/05/02 05:09:01;;;;;;;;;;;;;;;18.86;43.79;101593.98;105070;1286;60153;-82
2023/05/02 05:11:26;;;;;;;;;;;;;;;18.89;43.71;101597.79;105478;1289;60121;-82
2023/05/02 05:13:52;;;;;;;;;;;;;;;18.93;43.66;101594.06;105233;1285;75573;-82
2023/05/02 05:16:18;;;;;;;;;;;;;;;18.97;43.45;101599.20;104933;1285;60350;-82
2023/05/02 05:18:44;;;;;;;;;;;;;;;19.01;43.51;101599.72;104803;1286;61435;-82
2023/05/02 05:21:09;;;;;;;;;;;;;;;19.04;43.35;101600.10;104726;1285;61427;-82
2023/05/02 05:23:35;;;;;;;;;;;;;;;19.06;43.44;101603.55;104610;1290;61438;-82
2023/05/02 05:26:16;;;;;;;;;;;;;;;19.08;43.17;101604.87;105134;1285;59768;-82
2023/05/02 05:28:42;;;;;;;;;;;;;;;19.11;43.16;101604.94;104897;1285;60280;-82
2023/05/02 05:31:08;;;;;;;;;;;;;;;19.13;43.00;101606.63;104697;1284;61730;-82
2023/05/02 05:33:34;;;;;;;;;;;;;;;19.15;42.98;101610.11;105050;1285;61403;-82
2023/05/02 05:36:05;;;;;;;;;;;;;;;19.16;42.79;101615.23;105043;1286;61265;-82
2023/05/02 05:38:31;;;;;;;;;;;;;;;19.17;42.90;101616.95;105182;1285;59746;-82
2023/05/02 05:40:57;;;;;;;;;;;;;;;19.19;42.78;101619.73;105003;1286;61170;-82
2023/05/02 05:43:23;;;;;;;;;;;;;;;19.20;42.77;101618.92;105076;1285;61774;-82
2023/05/02 05:45:52;;;;;;;;;;;;;;;19.19;42.77;101617.91;105124;1286;61390;-83
2023/05/02 05:48:18;;;;;;;;;;;;;;;19.17;42.34;101616.06;106471;1286;61961;-82
2023/05/02 05:50:44;;;;;;;;;;;;;;;19.16;42.30;101617.02;105917;1285;59495;-82
2023/05/02 05:53:10;;;;;;;;;;;;;;;19.15;42.27;101615.23;105431;1286;59529;-82
2023/05/02 05:55:37;;;;;;;;;;;;;;;19.12;41.86;101612.89;106430;1285;59385;-83
2023/05/02 05:58:02;;;;;;;;;;;;;;;19.06;41.92;101612.67;106414;1284;59638;-84
2023/05/02 06:00:28;;;;;;;;;;;;;;;19.02;41.80;101617.84;106367;1285;59290;-83
2023/05/02 06:02:54;;;;;;;;;;;;;;;19.00;41.82;101620.31;106233;1286;59508;-84
2023/05/02 06:05:19;;;;;;;;;;;;;;;19.01;41.72;101620.63;106417;1285;59135;-83
2023/05/02 06:07:45;;;;;;;;;;;;;;;19.00;41.41;101622.95;106057;1286;74832;-83
2023/05/02 06:10:10;;;;;;;;;;;;;;;18.98;41.43;101622.34;105875;1285;60803;-82
2023/05/02 06:12:36;;;;;;;;;;;;;;;18.99;41.24;101623.02;105114;1284;61403;-83
2023/05/02 06:15:01;;;;;;;;;;;;;;;19.00;41.22;101623.89;104988;1286;61345;-82
2023/05/02 06:17:27;;;;;;;;;;;;;;;19.02;41.02;101626.45;104985;1286;61345;-82
2023/05/02 06:19:52;;;;;;;;;;;;;;;19.02;41.04;101624.98;104959;1284;74355;-82
2023/05/02 06:22:18;;;;;;;;;;;;;;;19.01;40.84;101627.20;105141;1285;61357;-82
2023/05/02 06:24:43;;;;;;;;;;;;;;;18.97;40.75;101627.38;105158;1285;61375;-82
2023/05/02 06:27:09;;;;;;;;;;;;;;;18.97;40.69;101626.84;104848;1285;62866;-82
2023/05/02 06:29:35;;;;;;;;;;;;;;;18.98;40.68;101625.39;105045;1285;61455;-82
2023/05/02 06:32:00;;;;;;;;;;;;;;;18.94;40.48;101625.55;104991;1285;74496;-82
2023/05/02 06:34:25;;;;;;;;;;;;;;;18.87;40.40;101621.63;104793;1285;61300;-82
2023/05/02 06:36:57;;;;;;;;;;;;;;;18.86;40.50;101626.63;104829;1286;61410;-82
2023/05/02 06:39:22;;;;;;;;;;;;;;;18.90;40.38;101626.11;105229;1285;72752;-82
2023/05/02 06:41:48;;;;;;;;;;;;;;;18.93;40.37;101621.16;105124;1285;61372;-82
2023/05/02 06:44:13;;;;;;;;;;;;;;;18.98;40.27;101618.08;105091;1286;60989;-82
2023/05/02 06:46:39;;;;;;;;;;;;;;;19.01;40.28;101617.54;105312;1285;61289;-82
2023/05/02 06:49:05;;;;;;;;;;;;;;;19.04;40.29;101614.91;105148;1285;61316;-82
2023/05/02 06:51:31;;;;;;;;;;;;;;;19.07;40.22;101622.77;105131;1285;73558;-83
2023/05/02 06:54:00;;;;;;;;;;;;;;;19.05;39.95;101621.66;105624;1285;64889;-81
2023/05/02 06:56:25;;;;;;;;;;;;;;;18.99;39.94;101617.83;105375;1285;61168;-82
2023/05/02 06:58:51;;;;;;;;;;;;;;;18.97;40.05;101618.30;105310;1285;61337;-82
2023/05/02 07:01:20;;;;;;;;;;;;;;;18.98;40.01;101615.74;105356;1286;60148;-82
2023/05/02 07:03:48;;;;;;;;;;;;;;;18.98;40.14;101612.91;105537;1285;74457;-82
2023/05/02 07:06:14;;;;;;;;;;;;;;;18.95;40.09;101614.64;105198;1285;599486;-82
2023/05/02 07:08:40;;;;;;;;;;;;;;;18.97;40.16;101615.25;105537;1286;60212;-82
2023/05/02 07:11:06;;;;;;;;;;;;;;;19.00;40.16;101618.52;105453;1285;59752;-82
2023/05/02 07:13:32;;;;;;;;;;;;;;;19.02;40.08;101609.29;105769;1288;60200;-81
2023/05/02 07:15:57;;;;;;;;;;;;;;;19.04;40.04;101607.23;105879;1285;59770;-81
2023/05/02 07:18:23;;;;;;;;;;;;;;;19.06;39.99;101608.39;105644;1288;61260;-81
2023/05/02 07:20:49;;;;;;;;;;;;;;;19.05;40.05;101608.61;105548;1285;60725;-81
2023/05/02 07:23:15;;;;;;;;;;;;;;;19.06;40.05;101608.55;105655;1286;61154;-81
2023/05/02 07:25:40;;;;;;;;;;;;;;;19.09;40.03;101613.77;105435;1286;59728;-81
2023/05/02 07:28:06;;;;;;;;;;;;;;;19.13;40.04;101611.46;105393;1289;59906;-81
2023/05/02 07:30:31;;;;;;;;;;;;;;;19.16;40.10;101613.95;105607;1284;60651;-82
2023/05/02 07:32:57;;;;;;;;;;;;;;;19.18;39.83;101612.98;105246;1285;61286;-81
2023/05/02 07:35:22;;;;;;;;;;;;;;;19.18;39.83;101609.20;105457;1290;62600;-81
2023/05/02 07:37:47;;;;;;;;;;;;;;;19.21;39.73;101609.59;105140;1286;61350;-83
2023/05/02 07:40:15;;;;;;;;;;;;;;;19.19;39.56;101605.80;105228;1286;61239;-82
2023/05/02 07:42:41;;;;;;;;;;;;;;;19.12;39.40;101610.95;104985;1285;61272;-82
2023/05/02 07:45:07;;;;;;;;;;;;;;;19.05;39.41;101609.86;105087;1285;61259;-82
2023/05/02 07:47:33;;;;;;;;;;;;;;;19.05;39.45;101611.64;105041;1288;60033;-82
2023/05/02 07:49:58;;;;;;;;;;;;;;;19.08;39.42;101613.27;105031;1285;61297;-82
2023/05/02 07:52:24;;;;;;;;;;;;;;;19.10;39.39;101616.38;105296;1284;60919;-82
2023/05/02 07:55:08;;;;;;;;;;;;;;;19.11;39.23;101617.24;106425;1287;59146;-82
2023/05/02 07:57:34;;;;;;;;;;;;;;;19.14;39.32;101612.84;105647;1289;60329;-82
2023/05/02 07:59:59;;;;;;;;;;;;;;;19.17;39.47;101621.07;105122;1285;61272;-82
2023/05/02 08:02:26;;;;;;;;;;;;;;;19.18;39.27;101627.05;105487;1285;60951;-82
2023/05/02 08:04:52;;;;;;;;;;;;;;;19.20;39.29;101622.84;105441;1285;61291;-82
2023/05/02 08:07:18;;;;;;;;;;;;;;;19.21;39.21;101624.23;105348;1286;60262;-83
2023/05/02 08:09:44;;;;;;;;;;;;;;;19.22;39.10;101625.08;105487;1286;61381;-82
2023/05/02 08:12:09;;;;;;;;;;;;;;;19.24;39.03;101623.92;105481;1286;76010;-81
2023/05/02 08:14:36;;;;;;;;;;;;;;;19.27;39.09;101628.04;105681;1286;61313;-82
2023/05/02 08:17:01;;;;;;;;;;;;;;;19.30;39.19;101625.60;105668;1285;60869;-81
2023/05/02 08:19:27;;;;;;;;;;;;;;;19.32;39.25;101627.07;105320;1288;61458;-83
2023/05/02 08:21:53;;;;;;;;;;;;;;;19.34;39.29;101630.91;105478;1284;59949;-83
2023/05/02 08:24:20;;;;;;;;;;;;;;;19.36;39.30;101630.77;105462;1285;59771;-82
2023/05/02 08:26:45;;;;;;;;;;;;;;;19.39;39.19;101630.80;106561;1285;59327;-83
2023/05/02 08:29:11;;;;;;;;;;;;;;;19.41;39.28;101631.05;106641;1286;60556;-83
2023/05/02 08:31:39;;;;;;;;;;;;;;;19.43;39.20;101627.59;105733;1286;72280;-82
2023/05/02 08:34:04;;;;;;;;;;;;;;;19.46;39.18;101623.17;105252;1286;74386;-83
2023/05/02 08:36:31;;;;;;;;;;;;;;;19.49;39.12;101627.14;105540;1286;61288;-83
2023/05/02 08:38:58;;;;;;;;;;;;;;;19.51;39.17;101626.27;105282;1286;61304;-83
2023/05/02 08:41:25;;;;;;;;;;;;;;;19.53;38.91;101620.14;105406;1285;72390;-83
2023/05/02 08:43:51;;;;;;;;;;;;;;;19.51;38.95;101626.48;105478;1286;61381;-82
2023/05/02 08:46:16;;;;;;;;;;;;;;;19.48;38.68;101626.67;105197;1285;60822;-83
2023/05/02 08:48:42;;;;;;;;;;;;;;;19.42;38.55;101623.91;105065;1285;59699;-83
2023/05/02 08:51:09;;;;;;;;;;;;;;;19.36;38.29;101621.15;105280;1286;61379;-83
2023/05/02 08:53:34;;;;;;;;;;;;;;;19.35;38.48;101618.92;105378;1285;61425;-83
2023/05/02 08:56:00;;;;;;;;;;;;;;;19.37;38.50;101615.57;105227;1285;61465;-83
2023/05/02 08:58:25;;;;;;;;;;;;;;;19.41;38.77;101616.06;105288;1286;61307;-83
2023/05/02 09:00:51;;;;;;;;;;;;;;;19.46;38.95;101614.59;105487;1290;61536;-82
2023/05/02 09:03:20;;;;;;;;;;;;;;;19.50;39.03;101613.52;105750;1286;60141;-82
2023/05/02 09:05:46;;;;;;;;;;;;;;;19.53;39.03;101613.33;105923;1285;74429;-82
2023/05/02 09:08:11;;;;;;;;;;;;;;;19.57;39.04;101616.33;105609;1285;61371;-82
2023/05/02 09:10:37;;;;;;;;;;;;;;;19.59;38.85;101607.45;105803;1284;60934;-81
2023/05/02 09:13:21;;;;;;;;;;;;;;;19.61;38.92;101600.61;105716;1286;59445;-82
2023/05/02 09:16:01;;;;;;;;;;;;;;;19.62;38.83;101604.50;105653;1286;75616;-82
2023/05/02 09:18:28;;;;;;;;;;;;;;;19.64;38.89;101601.53;105744;1284;61124;-82
2023/05/02 09:20:54;;;;;;;;;;;;;;;19.66;39.03;101606.09;106547;1289;61174;-82
2023/05/02 09:23:19;;;;;;;;;;;;;;;19.68;39.19;101602.95;106681;1286;59426;-82
2023/05/02 09:25:46;;;;;;;;;;;;;;;19.69;38.94;101602.87;106098;1285;59744;-82
2023/05/02 09:28:11;;;;;;;;;;;;;;;19.69;39.05;101600.70;105161;1290;61165;-81
2023/05/02 09:30:38;;;;;;;;;;;;;;;19.67;38.77;101604.73;105150;1285;60405;-82
2023/05/02 09:33:03;;;;;;;;;;;;;;;19.65;38.70;101597.17;105243;1285;61368;-83
2023/05/02 09:35:29;;;;;;;;;;;;;;;19.65;38.75;101600.91;105376;1288;61358;-85
2023/05/02 09:37:55;;;;;;;;;;;;;;;19.66;38.73;101602.14;105383;1285;75577;-83
2023/05/02 09:40:22;;;;;;;;;;;;;;;19.66;38.76;101600.34;105327;1285;59684;-83
2023/05/02 09:42:47;;;;;;;;;;;;;;;19.67;38.87;101597.61;105157;1286;61048;-83
2023/05/02 09:45:20;;;;;;;;;;;;;;;19.69;38.81;101599.46;105110;1286;61363;-83
2023/05/02 09:47:46;;;;;;;;;;;;;;;19.71;38.60;101600.80;105352;1285;74049;-82
2023/05/02 09:50:19;;;;;;;;;;;;;;;19.71;38.79;101592.94;105172;1286;61377;-82
2023/05/02 09:52:59;;;;;;;;;;;;;;;19.71;38.64;101592.95;105081;1286;61786;-83
2023/05/02 09:55:25;;;;;;;;;;;;;;;19.71;38.67;101590.63;105081;1285;72534;-83
2023/05/02 09:57:50;;;;;;;;;;;;;;;19.70;38.40;101586.05;105032;1286;61409;-83
2023/05/02 10:00:18;;;;;;;;;;;;;;;19.69;38.52;101583.39;105126;1286;61379;-83
2023/05/02 10:02:44;;;;;;;;;;;;;;;19.68;38.31;101577.71;105668;1291;60520;-83
2023/05/02 10:05:12;;;;;;;;;;;;;;;19.68;38.21;101581.14;105411;1285;61291;-84
2023/05/02 10:07:37;;;;;;;;;;;;;;;19.69;38.20;101579.80;105398;1285;61198;-84
2023/05/02 10:10:03;;;;;;;;;;;;;;;19.71;38.00;101576.34;105868;1289;60258;-82
2023/05/02 10:12:28;;;;;;;;;;;;;;;19.71;38.09;101576.15;105767;1285;60116;-82
2023/05/02 10:14:56;;;;;;;;;;;;;;;19.71;38.03;101571.84;105439;1285;60169;-83
2023/05/02 10:17:23;;;;;;;;;;;;;;;19.72;38.09;101572.33;105662;1285;61048;-82
2023/05/02 10:20:18;;;;;;;;;;;;;;;19.73;38.07;101575.35;105799;1285;60808;-81
2023/05/02 10:22:44;;;;;;;;;;;;;;;19.72;38.26;101567.31;105009;1291;60794;-81
2023/05/02 10:25:12;;;;;;;;;;;;;;;19.72;38.21;101564.81;104638;1291;73660;-82
2023/05/02 10:27:37;;;;;;;;;;;;;;;19.74;38.29;101565.45;104782;1291;74664;-81
2023/05/02 10:30:05;;;;;;;;;;;;;;;19.74;38.28;101561.49;104929;1292;59733;-82
2023/05/02 10:32:32;;;;;;;;;;;;;;;19.75;38.41;101564.16;105825;1291;59888;-80
2023/05/02 10:35:02;;;;;;;;;;;;;;;19.75;38.25;101563.80;104999;1292;72683;-82
2023/05/02 10:37:28;;;;;;;;;;;;;;;19.75;38.23;101557.71;104262;1294;73389;-82
2023/05/02 10:39:53;;;;;;;;;;;;;;;19.74;38.05;101554.16;104734;1292;61451;-81
2023/05/02 10:42:20;;;;;;;;;;;;;;;19.74;37.93;101555.80;104961;1292;60039;-81
2023/05/02 10:44:45;;;;;;;;;;;;;;;19.76;37.52;101556.23;104703;1291;60408;-82
2023/05/02 10:47:39;;;;;;;;;;;;;;;19.76;37.29;101553.88;104438;1297;61314;-81
2023/05/02 10:50:07;;;;;;;;;;;;;;;19.76;37.04;101548.71;104650;1291;61259;-81
2023/05/02 10:52:34;;;;;;;;;;;;;;;19.76;37.04;101549.23;104360;1291;61238;-81
2023/05/02 10:55:15;;;;;;;;;;;;;;;19.76;37.04;101551.40;104402;1297;73630;-81
2023/05/02 10:57:56;;;;;;;;;;;;;;;19.75;37.13;101555.77;104243;1292;75527;-82
2023/05/02 11:00:24;;;;;;;;;;;;;;;19.74;37.03;101551.85;105018;1286;61382;-82
2023/05/02 11:02:50;;;;;;;;;;;;;;;19.75;37.27;101556.11;105362;1286;60191;-83
2023/05/02 11:05:16;;;;;;;;;;;;;;;19.77;37.36;101556.17;105791;1290;60852;-83
2023/05/02 11:07:45;;;;;;;;;;;;;;;19.81;37.45;101553.33;105968;1290;59732;-83
2023/05/02 11:10:17;;;;;;;;;;;;;;;19.82;37.25;101543.06;105995;1286;59799;-82
2023/05/02 11:12:50;;;;;;;;;;;;;;;19.82;37.32;101549.50;105805;1286;61379;-83
2023/05/02 11:15:21;;;;;;;;;;;;;;;19.83;37.19;101548.21;105873;1285;72896;-82
2023/05/02 11:18:16;;;;;;;;;;;;;;;19.85;37.16;101538.46;105751;1286;74698;-82
2023/05/02 11:20:42;;;;;;;;;;;;;;;19.87;37.18;101539.40;105008;1291;61146;-81
2023/05/02 11:23:20;;;;;;;;;;;;;;;19.88;37.13;101549.71;104906;1297;61271;-84
2023/05/02 11:25:46;;;;;;;;;;;;;;;19.90;37.06;101556.77;105035;1292;72529;-82
2023/05/02 11:28:31;;;;;;;;;;;;;;;19.89;37.25;101548.57;104627;1292;61215;-82
2023/05/02 11:30:56;;;;;;;;;;;;;;;19.89;37.25;101547.72;104652;1292;61306;-82
2023/05/02 11:33:22;;;;;;;;;;;;;;;19.88;37.12;101541.69;104366;1292;61472;-82
2023/05/02 11:35:47;;;;;;;;;;;;;;;19.87;37.18;101537.62;104471;1291;61288;-82
2023/05/02 11:38:18;;;;;;;;;;;;;;;19.86;37.05;101539.28;104524;1291;74520;-82
2023/05/02 11:40:56;;;;;;;;;;;;;;;19.85;37.21;101538.83;104717;1293;59969;-82
2023/05/02 11:43:21;;;;;;;;;;;;;;;19.84;37.27;101539.04;104227;1291;61513;-82
2023/05/02 11:45:47;;;;;;;;;;;;;;;19.85;37.22;101536.69;103985;1291;61563;-82
2023/05/02 11:48:15;;;;;;;;;;;;;;;19.84;37.07;101531.70;104019;1291;61303;-82
2023/05/02 11:50:43;;;;;;;;;;;;;;;19.84;36.98;101533.34;103891;1295;61460;-82
2023/05/02 11:53:11;;;;;;;;;;;;;;;19.83;36.91;101524.64;104245;1294;61425;-82
2023/05/02 11:55:37;;;;;;;;;;;;;;;19.83;36.89;101524.84;104252;1297;73455;-81
2023/05/02 11:58:02;;;;;;;;;;;;;;;19.83;36.83;101521.74;104653;1288;61487;-82
2023/05/02 12:00:30;;;;;;;;;;;;;;;19.85;36.72;101522.03;105231;1291;61507;-81
2023/05/02 12:02:55;;;;;;;;;;;;;;;19.85;36.62;101522.58;105377;1290;61544;-81
2023/05/02 12:05:30;;;;;;;;;;;;;;;19.85;36.64;101523.29;105548;1289;59657;-80
2023/05/02 12:07:56;;;;;;;;;;;;;;;19.86;36.51;101523.77;105542;1286;74979;-80
2023/05/02 12:10:22;;;;;;;;;;;;;;;19.85;36.55;101518.12;105865;1291;62072;-80
2023/05/02 12:12:48;;;;;;;;;;;;;;;19.84;36.44;101525.09;105914;1286;59666;-81
2023/05/02 12:15:13;;;;;;;;;;;;;;;19.85;36.42;101520.96;105315;1286;61391;-81
2023/05/02 12:17:40;;;;;;;;;;;;;;;19.85;36.47;101513.48;105137;1291;61378;-81
2023/05/02 12:20:05;;;;;;;;;;;;;;;19.85;36.59;101511.48;104829;1286;61527;-81
2023/05/02 12:22:31;;;;;;;;;;;;;;;19.85;36.70;101512.56;104612;1286;61446;-81
2023/05/02 12:24:56;;;;;;;;;;;;;;;19.84;36.43;101506.35;104735;1289;61301;-81
2023/05/02 12:27:23;;;;;;;;;;;;;;;19.85;36.53;101502.75;104475;1284;61495;-81
2023/05/02 12:29:57;;;;;;;;;;;;;;;19.84;36.67;101505.63;104391;1289;61407;-81
2023/05/02 12:32:30;;;;;;;;;;;;;;;19.84;36.54;101498.48;104848;1288;59889;-80
2023/05/02 12:34:56;;;;;;;;;;;;;;;19.84;36.36;101501.02;104258;1286;61300;-81